Time;durP1;ratioP1;P1;durP2;ratioP2;P2;SDS_P1;SDS_P2;PMS_P1;PMS_P2;Temp;Humidity;BMP_temperature;BMP_pressure;BME280_temperature;BME280_humidity;BME280_pressure;Samples;Min_cycle;Max_cycle;Signal;HPM_P1;HPM_P2
2023/06/03 00:01:36;;;;;;;4.85;3.67;;;22.00;50.60;;;;;;5033158;28;20200;-76
2023/06/03 00:04:05;;;;;;;4.80;3.70;;;22.00;50.50;;;;;;5032897;28;20255;-76
2023/06/03 00:06:33;;;;;;;4.78;3.85;;;22.00;50.60;;;;;;5033069;28;20223;-78
2023/06/03 00:09:00;;;;;;;7.43;4.20;;;22.00;50.50;;;;;;5033022;28;20216;-78
2023/06/03 00:11:27;;;;;;;5.82;4.05;;;22.00;50.50;;;;;;5033032;28;20200;-78
2023/06/03 00:13:54;;;;;;;4.93;3.70;;;22.00;50.50;;;;;;5033257;28;20211;-78
2023/06/03 00:16:22;;;;;;;4.60;3.90;;;22.00;50.40;;;;;;5033289;28;20204;-78
2023/06/03 00:18:50;;;;;;;4.57;3.90;;;22.00;50.30;;;;;;5016834;28;20196;-78
2023/06/03 00:21:17;;;;;;;4.97;3.70;;;22.00;50.40;;;;;;5033406;28;20199;-78
2023/06/03 00:23:48;;;;;;;4.70;3.78;;;22.00;50.20;;;;;;5034032;28;20208;-78
2023/06/03 00:26:15;;;;;;;5.63;3.85;;;22.00;50.90;;;;;;5036366;28;20283;-78
2023/06/03 00:28:43;;;;;;;4.40;3.30;;;21.90;50.20;;;;;;5038170;28;20214;-78
2023/06/03 00:31:10;;;;;;;5.15;3.92;;;21.90;50.20;;;;;;5022231;28;20196;-78
2023/06/03 00:33:37;;;;;;;4.80;3.70;;;21.90;50.20;;;;;;5039344;28;20219;-78
2023/06/03 00:36:05;;;;;;;5.68;3.60;;;21.90;50.20;;;;;;5040415;28;20204;-78
2023/06/03 00:38:32;;;;;;;5.53;3.70;;;21.90;50.20;;;;;;5039411;28;20207;-77
2023/06/03 00:41:01;;;;;;;5.00;3.88;;;21.80;50.20;;;;;;5039378;28;20551;-77
2023/06/03 00:43:27;;;;;;;4.65;3.40;;;21.80;50.20;;;;;;5038722;28;20199;-77
2023/06/03 00:45:54;;;;;;;4.90;3.70;;;21.80;50.20;;;;;;5037974;28;20219;-77
2023/06/03 00:48:21;;;;;;;5.53;3.90;;;21.80;50.20;;;;;;5037811;28;20200;-77
2023/06/03 00:50:48;;;;;;;4.13;3.67;;;21.80;50.20;;;;;;5037584;28;20307;-77
2023/06/03 00:53:15;;;;;;;4.10;3.67;;;21.70;50.20;;;;;;5038889;28;20200;-77
2023/06/03 00:55:43;;;;;;;3.42;3.13;;;21.80;50.30;;;;;;5037489;28;20220;-77
2023/06/03 00:58:11;;;;;;;4.53;3.58;;;21.70;50.20;;;;;;5036811;28;20204;-77
2023/06/03 01:00:38;;;;;;;3.70;3.38;;;21.80;50.30;;;;;;5038783;28;20176;-77
2023/06/03 01:03:13;;;;;;;4.93;3.33;;;21.70;50.30;;;;;;5036460;28;20663;-76
2023/06/03 01:05:40;;;;;;;3.50;3.20;;;21.70;50.20;;;;;;5037201;28;20230;-76
2023/06/03 01:08:13;;;;;;;3.63;3.22;;;21.70;50.20;;;;;;5036327;28;20674;-78
2023/06/03 01:10:46;;;;;;;3.92;3.45;;;21.60;50.10;;;;;;5035934;28;20319;-78
2023/06/03 01:13:18;;;;;;;3.83;3.30;;;21.70;50.20;;;;;;5035840;28;20225;-78
2023/06/03 01:15:45;;;;;;;4.53;3.35;;;21.70;50.10;;;;;;5036296;28;20269;-78
2023/06/03 01:18:14;;;;;;;4.40;3.45;;;21.60;50.20;;;;;;5036078;28;20678;-78
2023/06/03 01:20:42;;;;;;;4.15;3.38;;;21.60;50.10;;;;;;5036175;28;20229;-78
2023/06/03 01:23:34;;;;;;;3.95;3.55;;;21.60;50.20;;;;;;5035862;28;20196;-78
2023/06/03 01:26:02;;;;;;;3.72;3.40;;;21.60;50.10;;;;;;5033800;28;20216;-78
2023/06/03 01:28:29;;;;;;;3.28;2.97;;;21.60;50.10;;;;;;5035633;28;20227;-78
2023/06/03 01:30:56;;;;;;;4.35;3.15;;;21.70;50.30;;;;;;5035400;28;20394;-78
2023/06/03 01:33:23;;;;;;;3.92;3.17;;;21.60;50.20;;;;;;5035283;28;20203;-78
2023/06/03 01:35:52;;;;;;;4.97;3.35;;;21.60;50.20;;;;;;5035383;28;20664;-78
2023/06/03 01:38:19;;;;;;;4.35;3.25;;;21.60;50.20;;;;;;5035443;28;20195;-78
2023/06/03 01:40:47;;;;;;;3.58;3.28;;;21.50;50.20;;;;;;5035120;28;20203;-78
2023/06/03 01:43:16;;;;;;;4.47;3.58;;;21.50;50.20;;;;;;5035367;28;20192;-78
2023/06/03 01:45:43;;;;;;;4.35;3.58;;;21.50;50.20;;;;;;5035159;28;20246;-77
2023/06/03 01:48:10;;;;;;;3.80;3.40;;;21.50;50.20;;;;;;5019310;28;20208;-77
2023/06/03 01:50:41;;;;;;;5.70;3.60;;;21.50;50.20;;;;;;5035722;28;20686;-77
2023/06/03 01:53:09;;;;;;;4.03;3.50;;;21.50;50.30;;;;;;5036375;28;20192;-77
2023/06/03 01:55:36;;;;;;;5.97;3.67;;;21.50;50.20;;;;;;5035388;28;20266;-77
2023/06/03 01:58:05;;;;;;;3.28;2.97;;;21.50;50.20;;;;;;5018643;28;20307;-77
2023/06/03 02:00:32;;;;;;;4.45;3.50;;;21.50;50.20;;;;;;5035667;28;20192;-77
2023/06/03 02:03:00;;;;;;;3.42;3.13;;;21.50;50.20;;;;;;5035909;28;20199;-77
2023/06/03 02:05:30;;;;;;;4.03;3.30;;;21.50;50.10;;;;;;5034887;28;20220;-77
2023/06/03 02:07:59;;;;;;;3.92;3.20;;;21.40;50.20;;;;;;5035776;28;20199;-77
2023/06/03 02:10:26;;;;;;;4.00;3.30;;;21.40;49.90;;;;;;5036134;28;20223;-77
2023/06/03 02:12:53;;;;;;;3.45;3.15;;;21.40;50.20;;;;;;5036875;28;20222;-78
2023/06/03 02:15:21;;;;;;;3.70;3.20;;;21.40;50.20;;;;;;5038476;28;20216;-77
2023/06/03 02:17:49;;;;;;;3.63;3.30;;;21.40;50.20;;;;;;5049460;28;20267;-77
2023/06/03 02:20:16;;;;;;;4.47;3.20;;;21.40;50.20;;;;;;5041371;28;20251;-77
2023/06/03 02:22:43;;;;;;;3.28;2.97;;;21.40;50.20;;;;;;5036043;28;20195;-77
2023/06/03 02:25:10;;;;;;;3.40;3.10;;;21.40;50.20;;;;;;5035306;28;20274;-77
2023/06/03 02:27:38;;;;;;;3.58;3.00;;;21.30;50.20;;;;;;5034490;28;20196;-77
2023/06/03 02:30:07;;;;;;;4.18;3.38;;;21.30;50.20;;;;;;5034461;28;20216;-77
2023/06/03 02:32:35;;;;;;;3.35;3.05;;;21.30;50.30;;;;;;5034502;28;20203;-77
2023/06/03 02:35:03;;;;;;;3.70;3.40;;;21.30;50.20;;;;;;5034082;28;20212;-77
2023/06/03 02:37:31;;;;;;;3.53;3.22;;;21.30;50.20;;;;;;5034268;28;20207;-77
2023/06/03 02:39:58;;;;;;;3.63;2.97;;;21.20;50.10;;;;;;5034190;28;20200;-77
2023/06/03 02:42:29;;;;;;;3.28;2.97;;;21.20;50.30;;;;;;5035179;28;20192;-77
2023/06/03 02:44:56;;;;;;;3.58;2.90;;;21.20;50.20;;;;;;5017858;28;20702;-77
2023/06/03 02:47:24;;;;;;;3.70;3.40;;;21.20;50.30;;;;;;5033850;28;20200;-77
2023/06/03 02:49:52;;;;;;;4.00;3.35;;;21.20;50.30;;;;;;5033739;28;20223;-77
2023/06/03 02:52:22;;;;;;;4.63;2.95;;;21.20;50.30;;;;;;5034196;28;20191;-77
2023/06/03 02:54:49;;;;;;;3.22;2.70;;;21.20;50.30;;;;;;5018231;28;20824;-77
2023/06/03 02:57:17;;;;;;;3.67;3.00;;;21.10;50.20;;;;;;5033887;28;20202;-77
2023/06/03 02:59:44;;;;;;;3.60;3.17;;;21.10;50.20;;;;;;5034140;28;20196;-77
2023/06/03 03:02:11;;;;;;;3.97;3.30;;;21.10;50.20;;;;;;5034225;28;20267;-77
2023/06/03 03:04:38;;;;;;;3.20;2.90;;;21.10;50.10;;;;;;5017831;28;20219;-77
2023/06/03 03:07:08;;;;;;;3.67;2.88;;;21.10;50.20;;;;;;5018728;28;20196;-77
2023/06/03 03:09:36;;;;;;;3.13;2.80;;;21.10;50.10;;;;;;5034956;28;20196;-77
2023/06/03 03:12:03;;;;;;;3.47;3.17;;;21.10;50.20;;;;;;5035076;28;20199;-77
2023/06/03 03:14:33;;;;;;;3.95;3.30;;;21.10;50.20;;;;;;5018165;28;20236;-77
2023/06/03 03:17:00;;;;;;;3.83;3.13;;;21.00;50.00;;;;;;5033947;28;20662;-77
2023/06/03 03:19:28;;;;;;;3.65;2.97;;;21.10;49.90;;;;;;5033724;28;20196;-77
2023/06/03 03:21:55;;;;;;;3.42;2.90;;;21.10;49.70;;;;;;5033511;28;20192;-77
2023/06/03 03:24:27;;;;;;;4.40;3.30;;;21.10;49.60;;;;;;5033385;28;20216;-77
2023/06/03 03:26:55;;;;;;;4.25;3.25;;;21.10;49.60;;;;;;5033802;28;20192;-77
2023/06/03 03:29:25;;;;;;;3.72;2.90;;;21.20;49.50;;;;;;5033848;28;20200;-77
2023/06/03 03:31:59;;;;;;;4.45;3.20;;;21.20;49.20;;;;;;5034079;28;20204;-77
2023/06/03 03:34:30;;;;;;;3.20;3.00;;;21.20;49.40;;;;;;5033218;28;20307;-77
2023/06/03 03:36:57;;;;;;;3.45;2.95;;;21.30;49.30;;;;;;5033351;28;20196;-77
2023/06/03 03:39:24;;;;;;;3.13;2.85;;;21.30;49.10;;;;;;5032879;22;20288;-80
2023/06/03 03:41:55;;;;;;;3.30;2.80;;;21.40;49.10;;;;;;5046290;28;20208;-80
2023/06/03 03:44:24;;;;;;;4.00;3.10;;;21.40;49.60;;;;;;5046399;28;20526;-80
2023/06/03 03:46:53;;;;;;;3.85;2.78;;;21.40;49.00;;;;;;5028769;28;20219;-80
2023/06/03 03:49:24;;;;;;;4.35;2.80;;;21.40;49.00;;;;;;5045222;28;20253;-80
2023/06/03 03:51:52;;;;;;;2.95;2.75;;;21.50;48.90;;;;;;5045778;28;20250;-80
2023/06/03 03:54:22;;;;;;;3.00;2.70;;;21.50;49.00;;;;;;5028058;28;20303;-80
2023/06/03 03:56:55;;;;;;;3.75;3.08;;;21.50;48.70;;;;;;5037754;28;20199;-80
2023/06/03 03:59:25;;;;;;;3.15;2.85;;;21.50;48.70;;;;;;5033889;28;20272;-80
2023/06/03 04:01:53;;;;;;;4.97;3.10;;;21.50;48.80;;;;;;5032589;28;20192;-80
2023/06/03 04:04:40;;;;;;;3.83;3.15;;;21.50;48.60;;;;;;5017399;28;20220;-80
2023/06/03 04:07:08;;;;;;;3.65;2.58;;;21.50;48.60;;;;;;5033466;28;20658;-80
2023/06/03 04:09:37;;;;;;;4.43;2.72;;;21.50;48.50;;;;;;5033163;28;20224;-80
2023/06/03 04:12:11;;;;;;;3.70;2.95;;;21.50;48.50;;;;;;5033288;28;20273;-80
2023/06/03 04:14:49;;;;;;;3.33;2.83;;;21.50;48.50;;;;;;5033297;28;20657;-80
2023/06/03 04:17:20;;;;;;;3.97;2.95;;;21.60;48.50;;;;;;5033945;28;20192;-80
2023/06/03 04:19:48;;;;;;;3.17;2.83;;;21.60;48.40;;;;;;5033391;28;20220;-80
2023/06/03 04:22:20;;;;;;;3.08;2.50;;;21.60;48.30;;;;;;5017761;28;20681;-80
2023/06/03 04:24:48;;;;;;;3.65;3.05;;;21.60;48.30;;;;;;5033571;28;20299;-80
2023/06/03 04:27:16;;;;;;;3.47;2.88;;;21.60;48.20;;;;;;5033090;28;20192;-80
2023/06/03 04:29:43;;;;;;;3.00;2.70;;;21.60;48.20;;;;;;5032751;28;20200;-80
2023/06/03 04:32:10;;;;;;;4.70;2.72;;;21.60;48.30;;;;;;5016606;28;20279;-80
2023/06/03 04:34:49;;;;;;;3.70;2.95;;;21.60;48.10;;;;;;5016572;28;20242;-80
2023/06/03 04:37:16;;;;;;;3.55;2.80;;;21.60;48.20;;;;;;5033643;28;20237;-80
2023/06/03 04:39:44;;;;;;;3.63;2.85;;;21.60;48.20;;;;;;5032837;28;20196;-80
2023/06/03 04:42:12;;;;;;;3.42;2.83;;;21.60;48.00;;;;;;5033589;28;20192;-80
2023/06/03 04:44:41;;;;;;;3.25;2.95;;;21.70;47.80;;;;;;5032843;28;20215;-80
2023/06/03 04:47:10;;;;;;;2.90;2.67;;;21.80;47.70;;;;;;5032820;28;20200;-80
2023/06/03 04:49:39;;;;;;;5.28;3.00;;;22.00;47.40;;;;;;5032787;28;20198;-80
2023/06/03 04:52:09;;;;;;;4.28;3.00;;;22.20;47.20;;;;;;5032351;28;20219;-81
2023/06/03 04:54:38;;;;;;;3.75;2.83;;;22.40;46.90;;;;;;5032414;28;20634;-81
2023/06/03 04:57:06;;;;;;;4.15;2.90;;;22.50;46.50;;;;;;5032585;28;20204;-81
2023/06/03 04:59:34;;;;;;;4.13;2.60;;;22.70;46.10;;;;;;5033410;28;20204;-81
2023/06/03 05:02:04;;;;;;;3.20;2.47;;;22.90;45.80;;;;;;5032913;28;20226;-81
2023/06/03 05:04:34;;;;;;;3.22;2.75;;;23.10;45.50;;;;;;5032560;28;20227;-81
2023/06/03 05:07:02;;;;;;;3.08;2.78;;;23.20;45.20;;;;;;5018483;28;20206;-81
2023/06/03 05:09:30;;;;;;;3.30;2.47;;;23.40;45.10;;;;;;5034348;28;20619;-81
2023/06/03 05:11:59;;;;;;;3.28;2.63;;;23.50;44.70;;;;;;5037161;28;20223;-81
2023/06/03 05:14:26;;;;;;;4.20;2.97;;;23.60;44.50;;;;;;5038903;28;20243;-81
2023/06/03 05:16:54;;;;;;;3.67;2.97;;;23.80;44.30;;;;;;5039274;28;20227;-80
2023/06/03 05:19:23;;;;;;;3.10;2.65;;;23.90;44.00;;;;;;5038802;28;20223;-81
2023/06/03 05:21:50;;;;;;;3.40;2.60;;;24.00;43.80;;;;;;5037916;28;20195;-80
2023/06/03 05:24:18;;;;;;;3.72;2.70;;;24.20;43.70;;;;;;5037413;28;20216;-80
2023/06/03 05:26:45;;;;;;;4.05;2.60;;;24.30;43.30;;;;;;5037267;28;20196;-80
2023/06/03 05:29:12;;;;;;;3.03;2.40;;;24.30;43.10;;;;;;5036913;28;20279;-80
2023/06/03 05:31:40;;;;;;;4.75;2.85;;;24.40;42.90;;;;;;5036472;28;20236;-80
2023/06/03 05:34:10;;;;;;;3.10;2.80;;;24.50;42.80;;;;;;5040372;28;20220;-81
2023/06/03 05:36:39;;;;;;;3.28;2.63;;;24.60;42.60;;;;;;5052482;28;20190;-81
2023/06/03 05:39:05;;;;;;;3.70;2.88;;;24.70;42.50;;;;;;5057951;28;20263;-81
2023/06/03 05:41:34;;;;;;;4.43;2.72;;;24.80;42.40;;;;;;5036294;28;20201;-81
2023/06/03 05:44:01;;;;;;;3.28;2.75;;;24.80;42.10;;;;;;5036483;28;20246;-81
2023/06/03 05:46:28;;;;;;;3.70;2.40;;;24.90;42.00;;;;;;5036952;28;20266;-81
2023/06/03 05:48:55;;;;;;;4.28;2.80;;;25.00;41.80;;;;;;5035812;28;20674;-81
2023/06/03 05:51:24;;;;;;;2.85;2.53;;;25.10;41.70;;;;;;5035821;28;20216;-81
2023/06/03 05:53:52;;;;;;;5.03;2.65;;;25.10;41.50;;;;;;5020294;28;20284;-81
2023/06/03 05:56:24;;;;;;;3.20;2.50;;;25.20;41.30;;;;;;5020516;28;20180;-81
2023/06/03 05:58:50;;;;;;;4.22;2.83;;;25.30;41.20;;;;;;5037554;28;20197;-81
2023/06/03 06:01:17;;;;;;;3.28;2.60;;;25.30;41.00;;;;;;5021609;28;20192;-81
2023/06/03 06:03:45;;;;;;;3.25;2.58;;;25.40;40.90;;;;;;5038085;28;20228;-81
2023/06/03 06:06:14;;;;;;;3.65;2.83;;;25.40;40.90;;;;;;5037527;28;20199;-81
2023/06/03 06:08:42;;;;;;;3.88;2.80;;;25.50;40.80;;;;;;5037810;28;20283;-81
2023/06/03 06:11:11;;;;;;;3.83;2.80;;;25.60;40.70;;;;;;5022125;28;20246;-81
2023/06/03 06:13:39;;;;;;;4.70;2.80;;;25.60;40.50;;;;;;5037002;28;20733;-81
2023/06/03 06:16:06;;;;;;;2.85;2.45;;;25.70;40.50;;;;;;5038422;28;20200;-81
2023/06/03 06:18:35;;;;;;;2.78;2.30;;;25.80;40.30;;;;;;5038146;28;20224;-81
2023/06/03 06:21:02;;;;;;;3.38;2.47;;;25.90;40.10;;;;;;5019559;28;20199;-81
2023/06/03 06:23:30;;;;;;;3.15;2.55;;;25.90;40.00;;;;;;5034129;28;20378;-81
2023/06/03 06:25:59;;;;;;;2.83;2.33;;;26.00;39.80;;;;;;5035137;28;20216;-81
2023/06/03 06:28:29;;;;;;;3.47;2.30;;;26.10;39.80;;;;;;5035124;28;20188;-81
2023/06/03 06:31:02;;;;;;;3.75;2.55;;;26.10;39.60;;;;;;5036199;28;20208;-81
2023/06/03 06:33:31;;;;;;;2.85;2.50;;;26.20;39.50;;;;;;5043074;28;20279;-81
2023/06/03 06:35:58;;;;;;;2.92;2.55;;;26.30;39.40;;;;;;5050254;28;20266;-81
2023/06/03 06:38:25;;;;;;;2.35;2.15;;;26.30;39.20;;;;;;5051726;28;20192;-81
2023/06/03 06:40:53;;;;;;;3.97;2.60;;;26.40;39.20;;;;;;5047990;28;20218;-81
2023/06/03 06:43:25;;;;;;;2.55;2.33;;;26.40;39.00;;;;;;5039943;28;20351;-81
2023/06/03 06:46:03;;;;;;;3.55;2.67;;;26.50;38.90;;;;;;5038559;28;20216;-81
2023/06/03 06:48:33;;;;;;;2.70;2.50;;;26.50;38.70;;;;;;5039422;28;20223;-81
2023/06/03 06:51:02;;;;;;;2.50;2.30;;;26.60;38.60;;;;;;5038850;28;20532;-81
2023/06/03 06:53:35;;;;;;;3.95;2.88;;;26.60;38.50;;;;;;5022326;28;20279;-80
2023/06/03 06:56:09;;;;;;;3.53;2.50;;;26.70;38.50;;;;;;5036458;28;20217;-81
2023/06/03 06:58:50;;;;;;;3.00;2.45;;;26.80;38.40;;;;;;5037769;28;20219;-81
2023/06/03 07:01:19;;;;;;;3.25;2.40;;;26.80;38.20;;;;;;5036972;28;20208;-81
2023/06/03 07:03:49;;;;;;;2.75;2.53;;;26.90;38.10;;;;;;5035572;28;20314;-81
2023/06/03 07:06:18;;;;;;;2.80;2.42;;;26.90;38.00;;;;;;5035688;28;20195;-81
2023/06/03 07:08:48;;;;;;;3.00;2.60;;;27.00;38.00;;;;;;5021114;28;20211;-81
2023/06/03 07:11:17;;;;;;;2.58;2.30;;;27.00;37.80;;;;;;5035683;28;20219;-81
2023/06/03 07:13:53;;;;;;;2.92;2.40;;;27.10;37.80;;;;;;5035951;28;20278;-81
2023/06/03 07:16:24;;;;;;;2.50;2.28;;;27.10;37.60;;;;;;5002727;28;20199;-81
2023/06/03 07:18:53;;;;;;;3.72;2.60;;;27.20;37.50;;;;;;5035083;28;20218;-81
2023/06/03 07:21:25;;;;;;;3.72;2.53;;;27.20;37.30;;;;;;5034981;28;20195;-82
2023/06/03 07:23:56;;;;;;;3.17;2.78;;;27.30;37.30;;;;;;5034845;28;20733;-81
2023/06/03 07:26:45;;;;;;;2.63;2.42;;;27.30;37.10;;;;;;5034979;28;20183;-81
2023/06/03 07:29:12;;;;;;;2.72;2.45;;;27.30;37.00;;;;;;5034366;28;20688;-81
2023/06/03 07:31:42;;;;;;;5.75;2.85;;;27.30;36.90;;;;;;5034273;28;20242;-80
2023/06/03 07:34:22;;;;;;;2.90;2.40;;;27.30;36.80;;;;;;5036495;28;20212;-83
2023/06/03 07:36:50;;;;;;;6.82;3.70;;;27.30;36.90;;;;;;5037145;28;20201;-83
2023/06/03 07:39:19;;;;;;;4.97;3.28;;;27.30;36.20;;;;;;5035754;28;20265;-81
2023/06/03 07:41:52;;;;;;;4.95;3.30;;;27.20;36.20;;;;;;5037673;28;20210;-81
2023/06/03 07:44:43;;;;;;;6.20;3.17;;;27.20;36.10;;;;;;5036936;28;20235;-81
2023/06/03 07:47:12;;;;;;;5.30;3.60;;;27.10;36.00;;;;;;5036211;28;20294;-81
2023/06/03 07:49:39;;;;;;;7.00;3.35;;;27.10;36.20;;;;;;5034475;28;20249;-82
2023/06/03 07:52:06;;;;;;;8.40;3.90;;;27.10;36.30;;;;;;5034467;28;20218;-81
2023/06/03 07:54:34;;;;;;;6.95;3.85;;;26.90;37.00;;;;;;5034758;28;20218;-81
2023/06/03 07:57:02;;;;;;;5.88;3.45;;;26.70;36.80;;;;;;5034484;28;20700;-82
2023/06/03 07:59:29;;;;;;;7.38;3.88;;;26.60;36.20;;;;;;5034849;28;20286;-81
2023/06/03 08:01:59;;;;;;;6.60;3.78;;;26.40;35.70;;;;;;5035346;28;20196;-82
2023/06/03 08:04:30;;;;;;;6.30;3.42;;;26.40;36.80;;;;;;5035588;28;20246;-81
2023/06/03 08:06:59;;;;;;;6.50;3.85;;;26.20;37.20;;;;;;5036331;28;20242;-82
2023/06/03 08:09:28;;;;;;;8.10;3.92;;;26.20;36.70;;;;;;5036582;28;20298;-81
2023/06/03 08:11:56;;;;;;;7.45;4.32;;;26.10;37.00;;;;;;5017508;28;20215;-81
2023/06/03 08:14:24;;;;;;;8.77;4.15;;;26.00;36.60;;;;;;5034261;28;20227;-81
2023/06/03 08:16:51;;;;;;;7.68;4.38;;;26.10;36.80;;;;;;5034621;28;20293;-81
2023/06/03 08:19:19;;;;;;;7.55;3.85;;;26.10;37.40;;;;;;5035033;28;20203;-81
2023/06/03 08:21:48;;;;;;;7.32;3.90;;;26.20;38.00;;;;;;5034016;28;20241;-81
2023/06/03 08:24:15;;;;;;;6.35;3.85;;;26.20;38.00;;;;;;5034008;28;20227;-81
2023/06/03 08:26:42;;;;;;;8.38;4.10;;;26.20;37.50;;;;;;5034059;28;20289;-82
2023/06/03 08:29:09;;;;;;;5.97;3.70;;;26.30;37.40;;;;;;5033873;28;20207;-82
2023/06/03 08:31:36;;;;;;;6.85;3.55;;;26.40;37.60;;;;;;5034975;28;20246;-82
2023/06/03 08:34:04;;;;;;;7.30;3.50;;;26.40;37.80;;;;;;5033610;28;20247;-81
2023/06/03 08:36:31;;;;;;;5.53;3.60;;;26.60;37.60;;;;;;5033986;28;20199;-81
2023/06/03 08:38:59;;;;;;;7.15;3.58;;;26.60;37.20;;;;;;5033705;28;20210;-81
2023/06/03 08:41:26;;;;;;;5.97;3.83;;;26.70;37.00;;;;;;5033887;28;20731;-81
2023/06/03 08:43:57;;;;;;;6.78;3.60;;;26.80;37.10;;;;;;5034487;28;20199;-81
2023/06/03 08:46:50;;;;;;;7.47;4.10;;;26.80;37.20;;;;;;5036672;28;20307;-81
2023/06/03 08:49:21;;;;;;;6.25;3.97;;;26.80;37.30;;;;;;5038495;28;20203;-81
2023/06/03 08:51:52;;;;;;;6.38;3.85;;;26.80;37.40;;;;;;5038708;28;20653;-80
2023/06/03 08:54:21;;;;;;;8.90;3.88;;;26.90;36.70;;;;;;5037374;28;20238;-80
2023/06/03 08:56:50;;;;;;;6.03;3.80;;;26.90;37.50;;;;;;5048496;28;20191;-80
2023/06/03 08:59:20;;;;;;;6.55;3.75;;;26.90;37.10;;;;;;5058124;28;20175;-80
2023/06/03 09:01:47;;;;;;;4.55;3.88;;;26.90;37.50;;;;;;5043348;28;20192;-80
2023/06/03 09:04:14;;;;;;;6.22;3.97;;;26.90;36.90;;;;;;5037459;28;20223;-80
2023/06/03 09:06:43;;;;;;;8.45;4.40;;;26.90;37.20;;;;;;5037566;28;20627;-80
2023/06/03 09:09:10;;;;;;;6.43;3.92;;;27.00;37.20;;;;;;5037336;28;20195;-79
2023/06/03 09:11:39;;;;;;;7.82;4.00;;;27.00;37.20;;;;;;5037164;28;20294;-79
2023/06/03 09:14:06;;;;;;;5.15;3.38;;;27.00;36.90;;;;;;5036804;28;20590;-79
2023/06/03 09:16:34;;;;;;;5.20;4.03;;;27.00;36.80;;;;;;5037583;28;20187;-79
2023/06/03 09:19:01;;;;;;;6.10;3.90;;;27.00;36.80;;;;;;5037540;28;20196;-79
2023/06/03 09:21:28;;;;;;;6.07;4.05;;;27.10;36.60;;;;;;5036811;28;20205;-79
2023/06/03 09:23:55;;;;;;;6.22;3.80;;;27.10;37.00;;;;;;5036967;28;20265;-79
2023/06/03 09:26:22;;;;;;;6.75;4.20;;;27.10;37.20;;;;;;5036688;28;20250;-80
2023/06/03 09:28:51;;;;;;;6.57;3.78;;;27.10;37.20;;;;;;5037174;28;20195;-80
2023/06/03 09:31:18;;;;;;;5.15;4.22;;;27.00;37.10;;;;;;5036744;28;20198;-79
2023/06/03 09:33:45;;;;;;;8.30;4.30;;;27.10;37.20;;;;;;5036369;28;20730;-79
2023/06/03 09:36:15;;;;;;;6.38;3.78;;;27.10;37.40;;;;;;5036668;28;20645;-81
2023/06/03 09:38:47;;;;;;;6.20;3.75;;;27.10;37.50;;;;;;5036247;28;20207;-81
2023/06/03 09:41:15;;;;;;;3.88;3.25;;;27.20;37.50;;;;;;5075513;22;20227;-77
2023/06/03 09:43:54;;;;;;;4.07;3.30;;;27.20;37.50;;;;;;5035613;28;20197;-77
2023/06/03 09:46:21;;;;;;;6.00;3.53;;;27.30;37.40;;;;;;5035662;28;20626;-77
2023/06/03 09:48:48;;;;;;;5.50;3.30;;;27.30;37.30;;;;;;5035692;28;20195;-77
2023/06/03 09:51:15;;;;;;;4.32;3.22;;;27.30;37.20;;;;;;5035899;28;20191;-77
2023/06/03 09:53:43;;;;;;;4.47;3.50;;;27.40;37.30;;;;;;5035561;28;20219;-77
2023/06/03 09:56:24;;;;;;;4.53;3.67;;;27.40;37.30;;;;;;5035862;28;20223;-77
2023/06/03 09:58:54;;;;;;;4.60;3.30;;;27.40;37.30;;;;;;5036102;28;20183;-77
2023/06/03 10:01:31;;;;;;;4.78;3.97;;;27.40;37.30;;;;;;5035517;28;20207;-77
2023/06/03 10:03:58;;;;;;;5.60;4.00;;;27.40;37.30;;;;;;5035356;28;20202;-77
2023/06/03 10:06:26;;;;;;;7.07;4.43;;;27.30;37.50;;;;;;5036157;28;20274;-77
2023/06/03 10:08:53;;;;;;;8.38;4.35;;;27.20;37.30;;;;;;5058440;28;20202;-77
2023/06/03 10:11:22;;;;;;;6.40;4.45;;;27.10;37.80;;;;;;5059564;28;20207;-77
2023/06/03 10:13:50;;;;;;;6.82;4.10;;;27.10;38.50;;;;;;5059333;28;20207;-77
2023/06/03 10:16:18;;;;;;;6.13;4.25;;;27.00;38.40;;;;;;5059220;28;20289;-77
2023/06/03 10:18:46;;;;;;;7.53;4.35;;;27.10;38.60;;;;;;5040461;28;20595;-77
2023/06/03 10:21:13;;;;;;;6.57;4.20;;;27.10;38.70;;;;;;5035155;28;20195;-77
2023/06/03 10:23:41;;;;;;;5.18;4.47;;;27.10;38.80;;;;;;5034935;28;20199;-77
2023/06/03 10:26:08;;;;;;;7.75;4.38;;;27.10;38.70;;;;;;5035300;28;20205;-76
2023/06/03 10:28:36;;;;;;;5.53;4.00;;;27.10;38.50;;;;;;5018137;28;20192;-76
2023/06/03 10:31:03;;;;;;;5.20;3.88;;;27.10;38.70;;;;;;5034525;28;20282;-76
2023/06/03 10:33:32;;;;;;;5.32;4.20;;;27.00;38.90;;;;;;5034483;28;20220;-76
2023/06/03 10:35:59;;;;;;;5.82;4.15;;;27.00;39.20;;;;;;5034222;28;20242;-76
2023/06/03 10:38:26;;;;;;;6.68;3.95;;;27.00;39.20;;;;;;5034630;28;20199;-76
2023/06/03 10:40:54;;;;;;;4.38;3.90;;;27.00;39.20;;;;;;5034457;28;20207;-76
2023/06/03 10:43:21;;;;;;;7.72;5.10;;;27.00;39.10;;;;;;5034098;28;20653;-76
2023/06/03 10:45:50;;;;;;;5.68;3.80;;;27.00;39.10;;;;;;5034107;28;20220;-76
2023/06/03 10:48:18;;;;;;;5.72;3.88;;;26.90;39.10;;;;;;5034757;28;20199;-76
2023/06/03 10:50:54;;;;;;;5.80;3.75;;;26.90;39.00;;;;;;5017866;28;20195;-76
2023/06/03 10:53:24;;;;;;;5.00;3.95;;;26.90;39.20;;;;;;5034091;28;20236;-76
2023/06/03 10:56:02;;;;;;;4.75;3.85;;;26.80;39.30;;;;;;5017435;28;20219;-76
2023/06/03 10:58:30;;;;;;;6.18;4.25;;;26.80;39.40;;;;;;5034396;28;20274;-76
2023/06/03 11:00:58;;;;;;;5.28;4.07;;;26.70;39.40;;;;;;5034177;28;20203;-76
2023/06/03 11:03:26;;;;;;;5.90;3.95;;;26.60;39.60;;;;;;5033855;28;20623;-76
2023/06/03 11:06:16;;;;;;;4.68;4.13;;;26.60;39.80;;;;;;5033659;28;20222;-76
2023/06/03 11:09:02;;;;;;;6.03;3.78;;;26.60;39.90;;;;;;5033404;28;20703;-76
2023/06/03 11:12:05;;;;;;;5.15;3.67;;;26.50;40.00;;;;;;5033590;28;20199;-76
2023/06/03 11:15:00;;;;;;;4.65;3.80;;;26.50;40.00;;;;;;5035466;28;20319;-76
2023/06/03 11:17:27;;;;;;;5.68;3.90;;;26.50;40.10;;;;;;5033734;28;20202;-76
2023/06/03 11:19:58;;;;;;;3.75;3.33;;;26.50;40.10;;;;;;5033478;28;20192;-76
2023/06/03 11:22:45;;;;;;;5.13;3.72;;;26.50;40.00;;;;;;5034349;28;20195;-76
2023/06/03 11:25:31;;;;;;;4.22;3.35;;;26.50;40.10;;;;;;5034269;28;20285;-76
2023/06/03 11:28:29;;;;;;;4.22;3.65;;;26.50;40.10;;;;;;5033897;28;20290;-76
2023/06/03 11:30:56;;;;;;;4.63;3.60;;;26.50;40.20;;;;;;4990212;28;20241;-76
2023/06/03 11:33:23;;;;;;;3.90;3.58;;;26.50;40.10;;;;;;5033141;28;20243;-76
2023/06/03 11:35:51;;;;;;;3.65;3.15;;;26.50;40.10;;;;;;5033407;28;20261;-76
2023/06/03 11:38:30;;;;;;;5.55;3.92;;;26.50;40.10;;;;;;5033319;28;20261;-76
2023/06/03 11:40:57;;;;;;;4.32;3.40;;;26.50;40.10;;;;;;5033161;28;20203;-76
2023/06/03 11:43:24;;;;;;;5.10;3.40;;;26.50;40.10;;;;;;5033589;28;20203;-76
2023/06/03 11:45:52;;;;;;;4.43;3.45;;;26.50;40.10;;;;;;5033959;28;20251;-76
2023/06/03 11:48:26;;;;;;;4.50;3.78;;;26.50;40.10;;;;;;5033733;28;20286;-76
2023/06/03 11:50:54;;;;;;;6.15;3.70;;;26.50;40.20;;;;;;5033792;28;20219;-76
2023/06/03 11:53:32;;;;;;;4.07;3.75;;;26.50;40.50;;;;;;5033720;28;20211;-76
2023/06/03 11:56:03;;;;;;;4.78;3.67;;;26.50;40.50;;;;;;5029423;28;20226;-76
2023/06/03 11:58:30;;;;;;;3.85;3.50;;;26.60;40.50;;;;;;5034974;28;20226;-76
2023/06/03 12:01:05;;;;;;;4.60;4.13;;;26.60;40.70;;;;;;5035006;28;20635;-76
2023/06/03 12:03:32;;;;;;;6.07;3.50;;;26.60;40.70;;;;;;5034098;28;20222;-76
2023/06/03 12:06:01;;;;;;;4.32;3.75;;;26.60;40.60;;;;;;5033691;28;20242;-76
2023/06/03 12:08:45;;;;;;;6.20;4.00;;;26.60;40.50;;;;;;5034396;28;20265;-75
2023/06/03 12:11:25;;;;;;;4.97;4.38;;;26.60;40.40;;;;;;5033372;28;20253;-76
2023/06/03 12:13:53;;;;;;;6.30;4.20;;;26.60;40.30;;;;;;5034213;28;20589;-76
2023/06/03 12:16:28;;;;;;;6.15;4.43;;;26.60;40.80;;;;;;5032675;28;20202;-76
2023/06/03 12:18:55;;;;;;;5.78;4.25;;;26.60;40.60;;;;;;5033079;28;20229;-76
2023/06/03 12:21:22;;;;;;;5.10;4.60;;;26.60;40.60;;;;;;5033553;28;20290;-77
2023/06/03 12:23:51;;;;;;;4.88;4.47;;;26.60;40.40;;;;;;5033794;28;20191;-77
2023/06/03 12:26:18;;;;;;;4.88;4.20;;;26.70;40.40;;;;;;5032475;28;20289;-77
2023/06/03 12:28:46;;;;;;;5.68;4.50;;;26.70;40.40;;;;;;5032546;28;20245;-77
2023/06/03 12:31:14;;;;;;;5.53;4.40;;;26.70;40.50;;;;;;5032462;28;20215;-77
2023/06/03 12:33:41;;;;;;;6.18;4.32;;;26.70;40.40;;;;;;5032283;28;20223;-77
2023/06/03 12:36:09;;;;;;;4.95;4.10;;;26.70;40.40;;;;;;5032313;28;20565;-77
2023/06/03 12:38:55;;;;;;;5.60;4.05;;;26.70;40.30;;;;;;5032757;28;20226;-77
2023/06/03 12:41:22;;;;;;;4.35;3.95;;;26.70;40.30;;;;;;5032767;28;20211;-77
2023/06/03 12:43:50;;;;;;;4.65;4.13;;;26.70;40.20;;;;;;5032358;28;20196;-76
2023/06/03 12:46:17;;;;;;;4.82;4.32;;;26.60;40.10;;;;;;5032805;28;20199;-76
2023/06/03 12:48:45;;;;;;;5.95;4.60;;;26.70;40.20;;;;;;5032230;28;20290;-76
2023/06/03 12:51:23;;;;;;;5.60;4.22;;;26.60;40.10;;;;;;5032332;28;20695;-76
2023/06/03 12:53:50;;;;;;;4.20;3.88;;;26.60;40.40;;;;;;5032014;28;20250;-76
2023/06/03 12:56:18;;;;;;;7.18;4.78;;;26.60;40.40;;;;;;5032133;28;20290;-76
2023/06/03 12:58:45;;;;;;;4.72;4.03;;;26.60;40.60;;;;;;5033110;28;20262;-76
2023/06/03 13:01:12;;;;;;;5.82;4.22;;;26.50;40.50;;;;;;5032267;28;20565;-76